createdAt,value
2016-10-25T00:00:40.439Z,25.77
2016-10-25T00:01:21.121Z,25.79
2016-10-25T00:02:01.786Z,25.77
2016-10-25T00:02:42.463Z,25.75
2016-10-25T00:03:23.140Z,25.72
2016-10-25T00:04:03.814Z,25.76
2016-10-25T00:04:44.476Z,25.8
2016-10-25T00:05:25.163Z,25.73
2016-10-25T00:06:05.825Z,25.73
2016-10-25T00:06:46.500Z,25.73
2016-10-25T00:07:27.186Z,25.85
2016-10-25T00:08:07.838Z,25.72
2016-10-25T00:08:48.547Z,25.76
2016-10-25T00:09:29.254Z,25.76
2016-10-25T00:10:09.935Z,25.76
2016-10-25T00:10:50.651Z,25.7
2016-10-25T00:11:31.320Z,25.76
2016-10-25T00:12:11.989Z,25.73
2016-10-25T00:12:52.649Z,25.79
2016-10-25T00:13:33.343Z,25.77
2016-10-25T00:14:13.990Z,25.79
2016-10-25T00:14:54.660Z,25.76
2016-10-25T00:15:35.365Z,25.77
2016-10-25T00:16:16.068Z,25.77
2016-10-25T00:16:56.699Z,25.7
2016-10-25T00:17:37.388Z,25.75
2016-10-25T00:18:18.084Z,25.76
2016-10-25T00:18:58.751Z,25.75
2016-10-25T00:19:39.450Z,25.73
2016-10-25T00:20:20.154Z,25.75
2016-10-25T00:21:00.824Z,25.76
2016-10-25T00:21:41.521Z,25.73
2016-10-25T00:22:22.191Z,25.77
2016-10-25T00:23:02.863Z,25.73
2016-10-25T00:23:43.580Z,25.77
2016-10-25T00:24:24.221Z,25.76
2016-10-25T00:25:04.871Z,25.75
2016-10-25T00:25:45.585Z,25.76
2016-10-25T00:26:26.290Z,25.76
2016-10-25T00:27:07.006Z,25.73
2016-10-25T00:27:47.725Z,25.75
2016-10-25T00:28:28.399Z,25.79
2016-10-25T00:29:09.121Z,25.76
2016-10-25T00:29:49.829Z,25.76
2016-10-25T00:30:30.548Z,25.77
2016-10-25T00:31:11.233Z,25.76
2016-10-25T00:31:51.933Z,25.79
2016-10-25T00:32:32.590Z,25.8
2016-10-25T00:33:13.250Z,25.75
2016-10-25T00:33:53.979Z,25.75
2016-10-25T00:34:34.647Z,25.75
2016-10-25T00:35:15.353Z,25.72
2016-10-25T00:35:56.025Z,25.76
2016-10-25T00:36:36.749Z,25.72
2016-10-25T00:37:17.501Z,25.77
2016-10-25T00:37:58.184Z,25.75
2016-10-25T00:38:38.861Z,25.73
2016-10-25T00:39:19.549Z,25.77
2016-10-25T00:40:00.245Z,25.76
2016-10-25T00:40:40.916Z,25.77
2016-10-25T00:41:21.577Z,25.73
2016-10-25T00:42:02.312Z,25.76
2016-10-25T00:42:42.997Z,25.76
2016-10-25T00:43:23.691Z,25.76
2016-10-25T00:44:04.331Z,25.67
2016-10-25T00:44:45.070Z,25.76
2016-10-25T00:45:25.734Z,25.75
2016-10-25T00:46:06.444Z,25.73
2016-10-25T00:46:47.139Z,25.73
2016-10-25T00:47:27.900Z,25.73
2016-10-25T00:48:08.590Z,25.79
2016-10-25T00:48:49.278Z,25.75
2016-10-25T00:49:29.959Z,25.75
2016-10-25T00:50:10.634Z,25.7
2016-10-25T00:50:51.329Z,25.76
2016-10-25T00:51:32.013Z,25.69
2016-10-25T00:52:12.681Z,25.7
2016-10-25T00:52:53.338Z,25.69
2016-10-25T00:53:34.050Z,25.76
2016-10-25T00:54:14.741Z,25.75
2016-10-25T00:54:55.413Z,25.77
2016-10-25T00:55:36.104Z,25.72
2016-10-25T00:56:16.792Z,25.76
2016-10-25T00:56:57.471Z,25.73
2016-10-25T00:57:38.155Z,25.73
2016-10-25T00:58:18.867Z,25.76
2016-10-25T00:58:59.557Z,25.7
2016-10-25T00:59:40.186Z,25.7
2016-10-25T01:00:20.908Z,25.7
2016-10-25T01:01:01.593Z,25.76
2016-10-25T01:01:42.283Z,25.72
2016-10-25T01:02:22.997Z,25.7
2016-10-25T01:03:03.636Z,25.65
2016-10-25T01:03:44.302Z,25.76
2016-10-25T01:04:25.031Z,25.73
2016-10-25T01:05:05.696Z,25.76
2016-10-25T01:05:46.409Z,25.75
2016-10-25T01:06:27.061Z,25.69
2016-10-25T01:07:07.752Z,25.73
2016-10-25T01:07:48.450Z,25.65
2016-10-25T01:08:29.131Z,25.75
2016-10-25T01:09:10.633Z,25.73
2016-10-25T01:09:50.514Z,25.73
2016-10-25T01:10:31.154Z,25.73
2016-10-25T01:11:11.865Z,25.77
2016-10-25T01:11:52.583Z,25.75
2016-10-25T01:12:33.254Z,25.7
2016-10-25T01:13:13.964Z,25.7
2016-10-25T01:13:54.645Z,25.7
2016-10-25T01:14:35.324Z,25.73
2016-10-25T01:15:16.060Z,25.73
2016-10-25T01:15:56.716Z,25.73
2016-10-25T01:16:37.399Z,25.72
2016-10-25T01:17:18.103Z,25.72
2016-10-25T01:17:58.781Z,25.72
2016-10-25T01:18:39.484Z,25.73
2016-10-25T01:19:20.165Z,25.73
2016-10-25T01:20:00.846Z,25.72
2016-10-25T01:20:41.574Z,25.69
2016-10-25T01:21:22.280Z,25.75
2016-10-25T01:22:02.936Z,25.67
2016-10-25T01:22:43.660Z,25.7
2016-10-25T01:23:24.332Z,25.75
2016-10-25T01:24:05.007Z,25.72
2016-10-25T01:24:45.711Z,25.73
2016-10-25T01:25:26.382Z,25.7
2016-10-25T01:26:07.077Z,25.7
2016-10-25T01:26:47.775Z,25.73
2016-10-25T01:27:28.426Z,25.75
2016-10-25T01:28:09.137Z,25.7
2016-10-25T01:28:49.878Z,25.72
2016-10-25T01:29:30.596Z,25.7
2016-10-25T01:30:11.273Z,25.73
2016-10-25T01:30:51.951Z,25.65
2016-10-25T01:31:32.660Z,25.73
2016-10-25T01:32:13.299Z,25.69
2016-10-25T01:32:53.964Z,25.73
2016-10-25T01:33:34.651Z,25.75
2016-10-25T01:34:15.344Z,25.72
2016-10-25T01:34:56.099Z,25.73
2016-10-25T01:35:36.791Z,25.8
2016-10-25T01:36:17.486Z,25.72
2016-10-25T01:36:58.204Z,25.7
2016-10-25T01:37:38.896Z,25.72
2016-10-25T01:38:19.625Z,25.7
2016-10-25T01:39:00.251Z,25.7
2016-10-25T01:39:40.983Z,25.72
2016-10-25T01:40:21.708Z,25.76
2016-10-25T01:41:02.409Z,25.73
2016-10-25T01:41:43.091Z,25.7
2016-10-25T01:42:23.798Z,25.67
2016-10-25T01:43:04.505Z,25.72
2016-10-25T01:43:45.191Z,25.7
2016-10-25T01:44:25.899Z,25.73
2016-10-25T01:45:06.584Z,25.76
2016-10-25T01:45:47.280Z,25.65
2016-10-25T01:46:27.975Z,25.7
2016-10-25T01:47:08.652Z,25.77
2016-10-25T01:47:49.393Z,25.72
2016-10-25T01:48:30.097Z,25.67
2016-10-25T01:49:10.742Z,25.7
2016-10-25T01:49:51.470Z,25.67
2016-10-25T01:50:32.121Z,25.72
2016-10-25T01:51:12.792Z,25.77
2016-10-25T01:51:53.515Z,25.75
2016-10-25T01:52:34.198Z,25.67
2016-10-25T01:53:14.905Z,25.7
2016-10-25T01:53:55.601Z,25.72
2016-10-25T01:54:36.234Z,25.73
2016-10-25T01:55:16.969Z,25.69
2016-10-25T01:55:57.659Z,25.7
2016-10-25T01:56:38.310Z,25.72
2016-10-25T01:57:18.987Z,25.72
2016-10-25T01:57:59.670Z,25.75
2016-10-25T01:58:40.332Z,25.72
2016-10-25T01:59:20.999Z,25.7
2016-10-25T02:00:01.680Z,25.73
2016-10-25T02:00:42.351Z,25.65
2016-10-25T02:01:23.011Z,25.72
2016-10-25T02:02:03.727Z,25.7
2016-10-25T02:02:44.451Z,25.65
2016-10-25T02:03:25.123Z,25.62
2016-10-25T02:04:05.860Z,25.72
2016-10-25T02:04:46.494Z,25.72
2016-10-25T02:05:27.181Z,25.73
2016-10-25T02:06:07.880Z,25.69
2016-10-25T02:06:48.561Z,25.72
2016-10-25T02:07:29.233Z,25.7
2016-10-25T02:08:09.926Z,25.73
2016-10-25T02:08:50.633Z,25.75
2016-10-25T02:09:31.314Z,25.75
2016-10-25T02:10:12.039Z,25.75
2016-10-25T02:10:52.717Z,25.69
2016-10-25T02:11:33.430Z,25.7
2016-10-25T02:12:14.119Z,25.72
2016-10-25T02:12:54.849Z,25.73
2016-10-25T02:13:35.529Z,25.65
2016-10-25T02:14:16.265Z,25.65
2016-10-25T02:14:56.928Z,25.7
2016-10-25T02:15:37.667Z,25.64
2016-10-25T02:16:18.370Z,25.67
2016-10-25T02:16:59.048Z,25.7
2016-10-25T02:17:39.717Z,25.72
2016-10-25T02:18:20.379Z,25.67
2016-10-25T02:19:01.055Z,25.77
2016-10-25T02:19:41.750Z,25.65
2016-10-25T02:20:22.408Z,25.65
2016-10-25T02:21:03.058Z,25.7
2016-10-25T02:21:43.782Z,25.75
2016-10-25T02:22:24.471Z,25.65
2016-10-25T02:23:05.145Z,25.73
2016-10-25T02:23:45.845Z,25.64
2016-10-25T02:24:26.556Z,25.64
2016-10-25T02:25:07.228Z,25.67
2016-10-25T02:25:47.926Z,25.65
2016-10-25T02:26:28.581Z,25.64
2016-10-25T02:27:09.295Z,25.67
2016-10-25T02:27:49.979Z,25.73
2016-10-25T02:28:30.666Z,25.64
2016-10-25T02:29:11.361Z,25.64
2016-10-25T02:29:52.046Z,25.72
2016-10-25T02:30:32.763Z,25.7
2016-10-25T02:31:13.471Z,25.72
2016-10-25T02:31:54.137Z,25.73
2016-10-25T02:32:34.859Z,25.7
2016-10-25T02:33:15.537Z,25.67
2016-10-25T02:33:56.148Z,25.64
2016-10-25T02:34:36.882Z,25.72
2016-10-25T02:35:17.557Z,25.67
2016-10-25T02:35:58.284Z,25.67
2016-10-25T02:36:38.964Z,25.7
2016-10-25T02:37:19.654Z,25.72
2016-10-25T02:38:00.307Z,25.65
2016-10-25T02:38:41.010Z,25.65
2016-10-25T02:39:21.704Z,25.73
2016-10-25T02:40:02.400Z,25.73
2016-10-25T02:40:43.073Z,25.69
2016-10-25T02:41:23.791Z,25.67
2016-10-25T02:42:04.482Z,25.73
2016-10-25T02:42:45.172Z,25.64
2016-10-25T02:43:25.839Z,25.62
2016-10-25T02:44:06.566Z,25.67
2016-10-25T02:44:47.284Z,25.69
2016-10-25T02:45:27.961Z,25.64
2016-10-25T02:46:08.665Z,25.65
2016-10-25T02:46:49.380Z,25.67
2016-10-25T02:47:30.069Z,25.7
2016-10-25T02:48:10.737Z,25.69
2016-10-25T02:48:51.455Z,25.69
2016-10-25T02:49:32.131Z,25.7
2016-10-25T02:50:12.786Z,25.65
2016-10-25T02:50:53.458Z,25.64
2016-10-25T02:51:34.190Z,25.72
2016-10-25T02:52:14.868Z,25.72
2016-10-25T02:52:55.557Z,25.73
2016-10-25T02:53:36.276Z,25.65
2016-10-25T02:54:16.929Z,25.64
2016-10-25T02:54:57.644Z,25.61
2016-10-25T02:55:38.293Z,25.64
2016-10-25T02:56:18.962Z,25.72
2016-10-25T02:56:59.660Z,25.73
2016-10-25T02:57:40.332Z,25.69
2016-10-25T02:58:20.994Z,25.65
2016-10-25T02:59:01.633Z,25.61
2016-10-25T02:59:42.325Z,25.62
2016-10-25T03:00:22.999Z,25.7
2016-10-25T03:01:03.673Z,25.67
2016-10-25T03:01:44.330Z,25.62
2016-10-25T03:02:25.051Z,25.69
2016-10-25T03:03:05.713Z,25.64
2016-10-25T03:03:46.391Z,25.65
2016-10-25T03:04:27.077Z,25.72
2016-10-25T03:05:07.749Z,25.69
2016-10-25T03:05:48.479Z,25.64
2016-10-25T03:06:29.208Z,25.7
2016-10-25T03:07:09.906Z,25.67
2016-10-25T03:07:50.543Z,25.62
2016-10-25T03:08:31.279Z,25.64
2016-10-25T03:09:11.948Z,25.69
2016-10-25T03:09:52.612Z,25.62
2016-10-25T03:10:33.276Z,25.67
2016-10-25T03:11:13.989Z,25.67
2016-10-25T03:11:54.646Z,25.67
2016-10-25T03:12:35.381Z,25.62
2016-10-25T03:13:16.091Z,25.72
2016-10-25T03:13:56.818Z,25.67
2016-10-25T03:14:37.523Z,25.64
2016-10-25T03:15:18.994Z,25.65
2016-10-25T03:15:59.684Z,25.64
2016-10-25T03:16:40.377Z,25.62
2016-10-25T03:17:21.059Z,25.65
2016-10-25T03:18:01.764Z,25.73
2016-10-25T03:18:42.439Z,25.62
2016-10-25T03:19:23.137Z,25.69
2016-10-25T03:20:03.835Z,25.69
2016-10-25T03:20:44.562Z,25.67
2016-10-25T03:21:25.223Z,25.65
2016-10-25T03:22:05.938Z,25.7
2016-10-25T03:22:46.574Z,25.61
2016-10-25T03:23:27.312Z,25.73
2016-10-25T03:24:08.001Z,25.69
2016-10-25T03:24:48.710Z,25.62
2016-10-25T03:25:29.382Z,25.64
2016-10-25T03:26:10.027Z,25.69
2016-10-25T03:26:50.707Z,25.58
2016-10-25T03:27:31.382Z,25.69
2016-10-25T03:28:12.063Z,25.65
2016-10-25T03:28:52.713Z,25.61
2016-10-25T03:29:33.383Z,25.72
2016-10-25T03:30:14.071Z,25.69
2016-10-25T03:30:54.746Z,25.65
2016-10-25T03:31:35.460Z,25.65
2016-10-25T03:32:16.157Z,25.7
2016-10-25T03:32:56.836Z,25.65
2016-10-25T03:33:37.551Z,25.64
2016-10-25T03:34:18.241Z,25.64
2016-10-25T03:34:58.948Z,25.65
2016-10-25T03:35:39.658Z,25.65
2016-10-25T03:36:20.345Z,25.69
2016-10-25T03:37:01.062Z,25.67
2016-10-25T03:37:41.799Z,25.72
2016-10-25T03:38:22.452Z,25.72
2016-10-25T03:39:03.172Z,25.62
2016-10-25T03:39:43.895Z,25.64
2016-10-25T03:40:24.619Z,25.69
2016-10-25T03:41:05.284Z,25.64
2016-10-25T03:41:45.984Z,25.6
2016-10-25T03:42:26.653Z,25.62
2016-10-25T03:43:07.355Z,25.62
2016-10-25T03:43:48.110Z,25.62
2016-10-25T03:44:28.768Z,25.64
2016-10-25T03:45:09.454Z,25.62
2016-10-25T03:45:50.106Z,25.64
2016-10-25T03:46:30.807Z,25.69
2016-10-25T03:47:11.508Z,25.61
2016-10-25T03:47:52.153Z,25.62
2016-10-25T03:48:32.854Z,25.62
2016-10-25T03:49:13.509Z,25.69
2016-10-25T03:49:54.182Z,25.65
2016-10-25T03:50:34.827Z,25.69
2016-10-25T03:51:15.573Z,25.64
2016-10-25T03:51:56.241Z,25.64
2016-10-25T03:52:36.955Z,25.67
2016-10-25T03:53:17.676Z,25.65
2016-10-25T03:53:58.389Z,25.64
2016-10-25T03:54:39.029Z,25.62
2016-10-25T03:55:19.736Z,25.62
2016-10-25T03:56:00.432Z,25.65
2016-10-25T03:56:41.140Z,25.65
2016-10-25T03:57:21.821Z,25.6
2016-10-25T03:58:02.508Z,25.65
2016-10-25T03:58:43.185Z,25.61
2016-10-25T03:59:23.823Z,25.62
2016-10-25T04:00:04.493Z,25.62
2016-10-25T04:00:45.200Z,25.65
2016-10-25T04:01:25.890Z,25.6
2016-10-25T04:02:06.569Z,25.67
2016-10-25T04:02:47.266Z,25.62
2016-10-25T04:03:27.886Z,25.75
2016-10-25T04:04:08.583Z,25.67
2016-10-25T04:04:49.300Z,25.72
2016-10-25T04:05:29.949Z,25.62
2016-10-25T04:06:10.685Z,25.62
2016-10-25T04:06:51.325Z,25.67
2016-10-25T04:07:32.022Z,25.62
2016-10-25T04:08:12.710Z,25.62
2016-10-25T04:08:53.377Z,25.62
2016-10-25T04:09:34.090Z,25.61
2016-10-25T04:10:14.756Z,25.61
2016-10-25T04:10:55.417Z,25.6
2016-10-25T04:11:36.123Z,25.62
2016-10-25T04:12:16.836Z,25.64
2016-10-25T04:12:57.523Z,25.61
2016-10-25T04:13:38.213Z,25.67
2016-10-25T04:14:18.892Z,25.61
2016-10-25T04:14:59.600Z,25.61
2016-10-25T04:15:40.290Z,25.62
2016-10-25T04:16:20.961Z,25.67
2016-10-25T04:17:01.595Z,25.65
2016-10-25T04:17:42.257Z,25.65
2016-10-25T04:18:22.954Z,25.62
2016-10-25T04:19:03.618Z,25.62
2016-10-25T04:19:44.264Z,25.69
2016-10-25T04:20:24.947Z,25.62
2016-10-25T04:21:05.628Z,25.67
2016-10-25T04:21:46.304Z,25.62
2016-10-25T04:22:27.030Z,25.58
2016-10-25T04:23:07.651Z,25.62
2016-10-25T04:23:48.325Z,25.62
2016-10-25T04:24:29.064Z,25.65
2016-10-25T04:25:09.714Z,25.65
2016-10-25T04:25:50.382Z,25.62
2016-10-25T04:26:31.057Z,25.67
2016-10-25T04:27:11.732Z,25.64
2016-10-25T04:27:52.419Z,25.61
2016-10-25T04:28:33.114Z,25.64
2016-10-25T04:29:13.794Z,25.61
2016-10-25T04:29:54.502Z,25.62
2016-10-25T04:30:35.195Z,25.62
2016-10-25T04:31:15.917Z,25.61
2016-10-25T04:31:56.609Z,25.62
2016-10-25T04:32:37.278Z,25.67
2016-10-25T04:33:17.985Z,25.67
2016-10-25T04:33:58.645Z,25.62
2016-10-25T04:34:39.355Z,25.62
2016-10-25T04:35:20.039Z,25.62
2016-10-25T04:36:00.752Z,25.64
2016-10-25T04:36:41.460Z,25.62
2016-10-25T04:37:22.174Z,25.6
2016-10-25T04:38:02.857Z,25.64
2016-10-25T04:38:43.561Z,25.62
2016-10-25T04:39:24.266Z,25.62
2016-10-25T04:40:04.943Z,25.62
2016-10-25T04:40:45.658Z,25.61
2016-10-25T04:41:26.334Z,25.67
2016-10-25T04:42:07.029Z,25.62
2016-10-25T04:42:47.701Z,25.65
2016-10-25T04:43:28.423Z,25.62
2016-10-25T04:44:09.109Z,25.58
2016-10-25T04:44:49.789Z,25.61
2016-10-25T04:45:30.447Z,25.61
2016-10-25T04:46:11.120Z,25.69
2016-10-25T04:46:51.788Z,25.65
2016-10-25T04:47:32.440Z,25.61
2016-10-25T04:48:13.116Z,25.64
2016-10-25T04:48:53.805Z,25.65
2016-10-25T04:49:34.416Z,25.62
2016-10-25T04:50:15.121Z,25.65
2016-10-25T04:50:55.829Z,25.6
2016-10-25T04:51:36.482Z,25.6
2016-10-25T04:52:17.140Z,25.64
2016-10-25T04:52:57.848Z,25.62
2016-10-25T04:53:38.537Z,25.62
2016-10-25T04:54:19.258Z,25.64
2016-10-25T04:54:59.971Z,25.61
2016-10-25T04:55:40.641Z,25.64
2016-10-25T04:56:21.294Z,25.61
2016-10-25T04:57:01.969Z,25.64
2016-10-25T04:57:42.633Z,25.64
2016-10-25T04:58:23.321Z,25.62
2016-10-25T04:59:04.000Z,25.64
2016-10-25T04:59:44.682Z,25.64
2016-10-25T05:00:25.306Z,25.64
2016-10-25T05:01:06.032Z,25.6
2016-10-25T05:01:46.721Z,25.62
2016-10-25T05:02:27.491Z,25.64
2016-10-25T05:03:08.181Z,25.64
2016-10-25T05:03:48.847Z,25.61
2016-10-25T05:04:29.501Z,25.64
2016-10-25T05:05:10.176Z,25.62
2016-10-25T05:05:50.925Z,25.64
2016-10-25T05:06:31.603Z,25.65
2016-10-25T05:07:12.327Z,25.64
2016-10-25T05:07:53.010Z,25.67
2016-10-25T05:08:33.692Z,25.62
2016-10-25T05:09:14.389Z,25.62
2016-10-25T05:09:55.110Z,25.64
2016-10-25T05:10:35.746Z,25.69
2016-10-25T05:11:16.407Z,25.65
2016-10-25T05:11:57.063Z,25.62
2016-10-25T05:12:37.765Z,25.69
2016-10-25T05:13:18.461Z,25.65
2016-10-25T05:13:59.181Z,25.62
2016-10-25T05:14:39.803Z,25.6
2016-10-25T05:15:20.484Z,25.62
2016-10-25T05:16:01.221Z,25.64
2016-10-25T05:16:41.941Z,25.64
2016-10-25T05:17:22.671Z,25.58
2016-10-25T05:18:03.361Z,25.62
2016-10-25T05:18:44.029Z,25.65
2016-10-25T05:19:24.746Z,25.64
2016-10-25T05:20:05.398Z,25.64
2016-10-25T05:20:46.066Z,25.65
2016-10-25T05:21:26.785Z,25.61
2016-10-25T05:22:07.429Z,25.64
2016-10-25T05:22:48.106Z,25.62
2016-10-25T05:23:28.813Z,25.67
2016-10-25T05:24:09.499Z,25.67
2016-10-25T05:24:50.149Z,25.62
2016-10-25T05:25:30.819Z,25.64
2016-10-25T05:26:11.511Z,25.64
2016-10-25T05:26:52.232Z,25.64
2016-10-25T05:27:32.896Z,25.65
2016-10-25T05:28:13.603Z,25.62
2016-10-25T05:28:54.281Z,25.62
2016-10-25T05:29:34.928Z,25.64
2016-10-25T05:30:15.643Z,25.62
2016-10-25T05:30:56.306Z,25.62
2016-10-25T05:31:36.992Z,25.62
2016-10-25T05:32:17.679Z,25.62
2016-10-25T05:32:58.387Z,25.62
2016-10-25T05:33:39.055Z,25.67
2016-10-25T05:34:19.726Z,25.65
2016-10-25T05:35:00.430Z,25.64
2016-10-25T05:35:41.075Z,25.64
2016-10-25T05:36:21.801Z,25.67
2016-10-25T05:37:02.463Z,25.61
2016-10-25T05:37:43.095Z,25.64
2016-10-25T05:38:23.826Z,25.65
2016-10-25T05:39:04.539Z,25.62
2016-10-25T05:39:45.222Z,25.6
2016-10-25T05:40:25.949Z,25.62
2016-10-25T05:41:06.634Z,25.65
2016-10-25T05:41:47.361Z,25.7
2016-10-25T05:42:28.011Z,25.67
2016-10-25T05:43:08.775Z,25.64
2016-10-25T05:43:49.463Z,25.62
2016-10-25T05:44:30.191Z,25.61
2016-10-25T05:45:10.905Z,25.61
2016-10-25T05:45:51.590Z,25.62
2016-10-25T05:46:32.303Z,25.61
2016-10-25T05:47:12.965Z,25.61
2016-10-25T05:47:53.671Z,25.61
2016-10-25T05:48:34.401Z,25.62
2016-10-25T05:49:15.041Z,25.61
2016-10-25T05:49:55.763Z,25.67
2016-10-25T05:50:36.464Z,25.69
2016-10-25T05:51:17.164Z,25.67
2016-10-25T05:51:57.865Z,25.64
2016-10-25T05:52:38.549Z,25.67
2016-10-25T05:53:19.218Z,25.64
2016-10-25T05:53:59.920Z,25.65
2016-10-25T05:54:40.571Z,25.6
2016-10-25T05:55:21.245Z,25.62
2016-10-25T05:56:01.990Z,25.64
2016-10-25T05:56:42.700Z,25.61
2016-10-25T05:57:23.369Z,25.62
2016-10-25T05:58:04.060Z,25.64
2016-10-25T05:58:44.709Z,25.6
2016-10-25T05:59:25.365Z,25.65
2016-10-25T06:00:06.064Z,25.64
2016-10-25T06:00:46.716Z,25.6
2016-10-25T06:01:27.437Z,25.61
2016-10-25T06:02:08.089Z,25.6
2016-10-25T06:02:48.767Z,25.62
2016-10-25T06:03:29.465Z,25.62
2016-10-25T06:04:10.160Z,25.64
2016-10-25T06:04:50.895Z,25.65
2016-10-25T06:05:31.616Z,25.69
2016-10-25T06:06:12.266Z,25.62
2016-10-25T06:06:52.951Z,25.7
2016-10-25T06:07:33.725Z,25.7
2016-10-25T06:08:14.413Z,25.64
2016-10-25T06:08:55.248Z,25.64
2016-10-25T06:09:35.949Z,25.61
2016-10-25T06:10:16.661Z,25.62
2016-10-25T06:10:57.581Z,25.64
2016-10-25T06:11:38.478Z,25.67
2016-10-25T06:12:19.255Z,25.72
2016-10-25T06:12:59.995Z,25.62
2016-10-25T06:13:40.688Z,25.62
2016-10-25T06:14:21.360Z,25.67
2016-10-25T06:15:02.067Z,25.61
2016-10-25T06:15:42.726Z,25.62
2016-10-25T06:16:23.488Z,25.62
2016-10-25T06:17:04.182Z,25.62
2016-10-25T06:17:44.882Z,25.64
2016-10-25T06:18:25.535Z,25.62
2016-10-25T06:19:06.215Z,25.61
2016-10-25T06:19:46.940Z,25.61
2016-10-25T06:20:27.605Z,25.7
2016-10-25T06:21:08.303Z,25.65
2016-10-25T06:21:48.972Z,25.62
2016-10-25T06:22:29.652Z,25.69
2016-10-25T06:23:10.370Z,25.62
2016-10-25T06:23:51.029Z,25.61
2016-10-25T06:24:31.731Z,25.67
2016-10-25T06:25:12.387Z,25.61
2016-10-25T06:25:53.044Z,25.62
2016-10-25T06:26:33.763Z,25.62
2016-10-25T06:27:14.415Z,25.65
2016-10-25T06:27:55.159Z,25.72
2016-10-25T06:28:35.793Z,25.65
2016-10-25T06:29:16.486Z,25.67
2016-10-25T06:29:57.174Z,25.62
2016-10-25T06:30:37.857Z,25.62
2016-10-25T06:31:18.584Z,25.64
2016-10-25T06:31:59.287Z,25.61
2016-10-25T06:32:39.961Z,25.61
2016-10-25T06:33:20.704Z,25.6
2016-10-25T06:34:01.375Z,25.62
2016-10-25T06:34:42.093Z,25.62
2016-10-25T06:35:22.813Z,25.64
2016-10-25T06:36:03.530Z,25.62
2016-10-25T06:36:44.228Z,25.61
2016-10-25T06:37:24.920Z,25.65
2016-10-25T06:38:05.584Z,25.69
2016-10-25T06:38:46.314Z,25.65
2016-10-25T06:39:27.015Z,25.62
2016-10-25T06:40:07.704Z,25.65
2016-10-25T06:40:48.392Z,25.67
2016-10-25T06:41:29.091Z,25.65
2016-10-25T06:42:09.820Z,25.69
2016-10-25T06:42:50.532Z,25.64
2016-10-25T06:43:31.291Z,25.65
2016-10-25T06:44:11.975Z,25.64
2016-10-25T06:44:52.697Z,25.65
2016-10-25T06:45:33.395Z,25.65
2016-10-25T06:46:14.114Z,25.64
2016-10-25T06:46:54.790Z,25.62
2016-10-25T06:47:35.509Z,25.7
2016-10-25T06:48:16.235Z,25.7
2016-10-25T06:48:56.933Z,25.67
2016-10-25T06:49:37.592Z,25.7
2016-10-25T06:50:18.273Z,25.69
2016-10-25T06:50:58.931Z,25.67
2016-10-25T06:51:39.624Z,25.62
2016-10-25T06:52:20.330Z,25.61
2016-10-25T06:53:01.073Z,25.61
2016-10-25T06:53:41.775Z,25.61
2016-10-25T06:54:22.472Z,25.62
2016-10-25T06:55:03.177Z,25.73
2016-10-25T06:55:43.917Z,25.65
2016-10-25T06:56:24.606Z,25.62
2016-10-25T06:57:05.382Z,25.62
2016-10-25T06:57:46.106Z,25.62
2016-10-25T06:58:26.847Z,25.62
2016-10-25T06:59:07.555Z,25.67
2016-10-25T06:59:48.287Z,25.7
2016-10-25T07:00:29.008Z,25.62
2016-10-25T07:01:09.874Z,25.72
2016-10-25T07:01:50.666Z,25.65
2016-10-25T07:02:31.436Z,25.62
2016-10-25T07:03:12.234Z,25.64
2016-10-25T07:03:52.986Z,25.65
2016-10-25T07:04:33.714Z,25.62
2016-10-25T07:05:14.507Z,25.64
2016-10-25T07:05:55.314Z,25.72
2016-10-25T07:06:36.124Z,25.62
2016-10-25T07:07:16.902Z,25.61
2016-10-25T07:07:57.706Z,25.65
2016-10-25T07:08:38.491Z,25.62
2016-10-25T07:09:19.236Z,25.64
2016-10-25T07:10:00.001Z,25.62
2016-10-25T07:10:40.750Z,25.65
2016-10-25T07:11:21.471Z,25.65
2016-10-25T07:12:02.201Z,25.62
2016-10-25T07:12:42.988Z,25.62
2016-10-25T07:13:23.751Z,25.7
2016-10-25T07:14:04.496Z,25.65
2016-10-25T07:14:45.262Z,25.67
2016-10-25T07:15:25.996Z,25.62
2016-10-25T07:16:06.848Z,25.64
2016-10-25T07:16:48.334Z,25.65
2016-10-25T07:17:28.474Z,25.61
2016-10-25T07:18:09.231Z,25.64
2016-10-25T07:18:49.952Z,25.64
2016-10-25T07:19:30.703Z,25.61
2016-10-25T07:20:11.448Z,25.64
2016-10-25T07:20:52.251Z,25.61
2016-10-25T07:21:33.043Z,25.61
2016-10-25T07:22:13.846Z,25.62
2016-10-25T07:22:54.598Z,25.62
2016-10-25T07:23:35.336Z,25.61
2016-10-25T07:24:16.117Z,25.65
2016-10-25T07:24:56.896Z,25.62
2016-10-25T07:25:37.660Z,25.62
2016-10-25T07:26:18.384Z,25.65
2016-10-25T07:26:59.220Z,25.58
2016-10-25T07:27:39.994Z,25.62
2016-10-25T07:28:20.798Z,25.62
2016-10-25T07:29:01.536Z,25.64
2016-10-25T07:29:42.283Z,25.69
2016-10-25T07:30:23.044Z,25.64
2016-10-25T07:31:03.820Z,25.65
2016-10-25T07:31:44.615Z,25.67
2016-10-25T07:32:25.359Z,25.64
2016-10-25T07:33:06.125Z,25.62
2016-10-25T07:33:46.885Z,25.62
2016-10-25T07:34:27.671Z,25.7
2016-10-25T07:35:08.457Z,25.72
2016-10-25T07:35:49.220Z,25.73
2016-10-25T07:36:29.998Z,25.72
2016-10-25T07:37:10.731Z,25.76
2016-10-25T07:37:51.459Z,25.82
2016-10-25T07:38:32.225Z,25.82
2016-10-25T07:39:12.977Z,25.75
2016-10-25T07:39:53.811Z,25.83
2016-10-25T07:40:34.566Z,25.82
2016-10-25T07:41:15.301Z,25.9
2016-10-25T07:41:56.126Z,25.9
2016-10-25T07:42:37.458Z,25.83
2016-10-25T07:43:18.266Z,25.9
2016-10-25T07:43:59.021Z,25.85
2016-10-25T07:44:39.851Z,25.9
2016-10-25T07:45:20.656Z,25.88
2016-10-25T07:46:01.435Z,25.91
2016-10-25T07:46:42.227Z,25.9
2016-10-25T07:47:23.646Z,25.87
2016-10-25T07:48:04.423Z,25.87
2016-10-25T07:48:45.155Z,25.87
2016-10-25T07:49:25.930Z,25.9
2016-10-25T07:50:06.748Z,25.77
2016-10-25T07:50:47.505Z,25.79
2016-10-25T07:51:28.236Z,25.79
2016-10-25T07:52:09.057Z,25.76
2016-10-25T07:52:49.839Z,25.83
2016-10-25T07:53:30.618Z,25.91
2016-10-25T07:54:11.455Z,25.87
2016-10-25T07:54:52.788Z,25.9
2016-10-25T07:55:33.534Z,25.91
2016-10-25T07:56:14.291Z,25.88
2016-10-25T07:56:55.083Z,25.91
2016-10-25T07:57:35.878Z,25.92
2016-10-25T07:58:16.640Z,25.85
2016-10-25T07:58:57.410Z,25.9
2016-10-25T07:59:38.156Z,25.9
2016-10-25T08:00:18.951Z,25.88
2016-10-25T08:00:59.724Z,25.9
2016-10-25T08:01:40.470Z,25.88
2016-10-25T08:02:21.280Z,25.94
2016-10-25T08:03:02.641Z,25.91
2016-10-25T08:03:44.357Z,25.88
2016-10-25T08:04:24.203Z,25.87
2016-10-25T08:05:05.041Z,25.87
2016-10-25T08:05:45.857Z,25.87
2016-10-25T08:06:26.595Z,25.91
2016-10-25T08:07:07.316Z,25.9
2016-10-25T08:07:48.088Z,25.99
2016-10-25T08:08:28.932Z,25.91
2016-10-25T08:09:09.727Z,25.91
2016-10-25T08:09:52.011Z,25.94
2016-10-25T08:10:32.816Z,25.99
2016-10-25T08:11:13.654Z,26.05
2016-10-25T08:11:54.406Z,25.88
2016-10-25T08:12:35.270Z,25.97
2016-10-25T08:13:16.048Z,25.9
2016-10-25T08:13:56.971Z,25.97
2016-10-25T08:14:37.783Z,26.05
2016-10-25T08:15:18.629Z,25.94
2016-10-25T08:15:59.411Z,26.02
2016-10-25T08:16:40.262Z,25.94
2016-10-25T08:17:20.979Z,25.99
2016-10-25T08:18:01.739Z,25.99
2016-10-25T08:18:42.543Z,26.01
2016-10-25T08:19:23.327Z,26.01
2016-10-25T08:20:04.073Z,26.02
2016-10-25T08:20:44.883Z,26.07
2016-10-25T08:21:25.671Z,26.09
2016-10-25T08:22:06.466Z,26.02
2016-10-25T08:22:48.158Z,26.07
2016-10-25T08:23:28.946Z,26.09
2016-10-25T08:24:11.537Z,26.06
2016-10-25T08:24:52.323Z,26.06
2016-10-25T08:25:33.075Z,26.01
2016-10-25T08:26:13.889Z,26.09
2016-10-25T08:26:54.622Z,26.1
2016-10-25T08:27:35.366Z,26.09
2016-10-25T08:28:16.178Z,26.07
2016-10-25T08:28:57.868Z,26.21
2016-10-25T08:29:37.737Z,26.12
2016-10-25T08:30:18.545Z,26.13
2016-10-25T08:31:00.137Z,26.15
2016-10-25T08:31:40.975Z,26.21
2016-10-25T08:32:21.745Z,26.15
2016-10-25T08:33:02.574Z,26.28
2016-10-25T08:33:43.332Z,26.28
2016-10-25T08:34:24.881Z,26.28
2016-10-25T08:35:04.902Z,26.29
2016-10-25T08:35:45.713Z,26.18
2016-10-25T08:36:27.476Z,26.35
2016-10-25T08:37:08.252Z,26.23
2016-10-25T08:37:49.048Z,26.29
2016-10-25T08:38:29.848Z,26.39
2016-10-25T08:39:10.641Z,26.3
2016-10-25T08:39:51.393Z,26.32
2016-10-25T08:40:32.180Z,26.29
2016-10-25T08:41:12.935Z,26.29
2016-10-25T08:41:53.725Z,26.32
2016-10-25T08:42:34.466Z,26.33
2016-10-25T08:43:15.295Z,26.29
2016-10-25T08:43:56.094Z,26.32
2016-10-25T08:44:36.852Z,26.35
2016-10-25T08:45:17.668Z,26.3
2016-10-25T08:45:58.442Z,26.33
2016-10-25T08:46:39.215Z,26.28